Time;durP1;ratioP1;P1;durP2;ratioP2;P2;SDS_P1;SDS_P2;PMS_P1;PMS_P2;Temp;Humidity;BMP_temperature;BMP_pressure;BME280_temperature;BME280_humidity;BME280_pressure;Samples;Min_cycle;Max_cycle;Signal;HPM_P1;HPM_P2
2022/06/18 00:00:08;;;;;;;4.40;4.10;;;;;;;;;;5031659;28;20555;-87
2022/06/18 00:02:35;;;;;;;4.33;3.97;;;;;;;;;;5031401;28;20197;-87
2022/06/18 00:05:04;;;;;;;4.00;3.70;;;;;;;;;;5031081;28;20225;-87
2022/06/18 00:07:31;;;;;;;4.53;4.23;;;;;;;;;;5031364;28;20638;-87
2022/06/18 00:10:01;;;;;;;4.50;4.20;;;;;;;;;;5031615;28;20632;-87
2022/06/18 00:15:18;;;;;;;4.73;4.13;;;;;;;;;;5011521;28;20256;-87
2022/06/18 00:17:45;;;;;;;4.93;4.53;;;;;;;;;;5011662;28;20191;-87
2022/06/18 00:20:15;;;;;;;5.17;4.77;;;;;;;;;;5011808;28;20200;-87
2022/06/18 00:22:45;;;;;;;5.13;4.73;;;;;;;;;;5011232;28;20198;-86
2022/06/18 00:25:18;;;;;;;5.60;5.03;;;;;;;;;;5011368;28;20227;-87
2022/06/18 00:27:45;;;;;;;5.73;5.13;;;;;;;;;;5011200;28;20200;-87
2022/06/18 00:30:15;;;;;;;6.00;5.33;;;;;;;;;;5011906;28;20600;-87
2022/06/18 00:32:42;;;;;;;5.13;4.63;;;;;;;;;;5011410;28;20207;-88
2022/06/18 00:35:10;;;;;;;5.73;4.53;;;;;;;;;;5011491;28;20202;-87
2022/06/18 00:37:39;;;;;;;4.77;4.20;;;;;;;;;;5011212;28;20694;-87
2022/06/18 00:40:14;;;;;;;4.33;3.57;;;;;;;;;;5011126;28;20256;-87
2022/06/18 00:42:42;;;;;;;4.30;3.90;;;;;;;;;;5011088;28;20195;-87
2022/06/18 00:45:13;;;;;;;3.87;3.57;;;;;;;;;;5010827;28;20227;-86
2022/06/18 00:47:44;;;;;;;5.93;3.30;;;;;;;;;;5011176;28;20205;-86
2022/06/18 00:50:16;;;;;;;6.20;4.07;;;;;;;;;;5011678;28;20195;-87
2022/06/18 00:52:49;;;;;;;4.73;4.43;;;;;;;;;;5010750;28;20202;-87
2022/06/18 00:55:19;;;;;;;5.90;4.37;;;;;;;;;;5011187;28;20180;-87
2022/06/18 00:57:53;;;;;;;5.90;5.30;;;;;;;;;;5011431;28;20625;-87
2022/06/18 01:00:22;;;;;;;4.67;4.33;;;;;;;;;;5011073;28;20274;-87
2022/06/18 01:02:52;;;;;;;5.37;4.50;;;;;;;;;;5010685;28;20206;-87
2022/06/18 01:05:23;;;;;;;4.33;4.03;;;;;;;;;;5010549;28;20220;-87
2022/06/18 01:07:55;;;;;;;5.67;4.60;;;;;;;;;;5010970;28;20194;-87
2022/06/18 01:10:28;;;;;;;3.97;3.67;;;;;;;;;;5010763;28;20699;-87
2022/06/18 01:12:56;;;;;;;6.50;3.73;;;;;;;;;;5010919;28;20289;-87
2022/06/18 01:15:23;;;;;;;4.30;3.30;;;;;;;;;;5010744;28;20201;-87
2022/06/18 01:17:53;;;;;;;5.03;3.43;;;;;;;;;;5011709;28;20202;-87
2022/06/18 01:20:22;;;;;;;6.10;3.57;;;;;;;;;;5010473;28;20199;-86
2022/06/18 01:22:57;;;;;;;4.93;4.53;;;;;;;;;;5010452;28;20755;-86
2022/06/18 01:25:26;;;;;;;4.30;3.70;;;;;;;;;;5010207;28;20700;-87
2022/06/18 01:27:54;;;;;;;6.00;4.10;;;;;;;;;;5010574;28;20255;-86
2022/06/18 01:30:23;;;;;;;4.37;3.90;;;;;;;;;;5010283;28;20693;-86
2022/06/18 01:32:53;;;;;;;4.13;3.80;;;;;;;;;;5010451;28;20560;-86
2022/06/18 01:35:21;;;;;;;4.40;4.10;;;;;;;;;;5010543;28;20743;-85
2022/06/18 01:37:49;;;;;;;6.70;4.63;;;;;;;;;;5010229;28;20206;-86
2022/06/18 01:40:22;;;;;;;5.87;4.03;;;;;;;;;;5010205;28;20670;-87
2022/06/18 01:42:51;;;;;;;4.80;4.50;;;;;;;;;;5009658;28;20705;-86
2022/06/18 01:45:23;;;;;;;5.30;3.87;;;;;;;;;;5010091;28;20650;-87
2022/06/18 01:47:53;;;;;;;4.27;3.83;;;;;;;;;;5009913;28;20190;-87
2022/06/18 01:50:23;;;;;;;5.40;3.87;;;;;;;;;;5010113;28;20195;-86
2022/06/18 01:52:55;;;;;;;5.67;4.30;;;;;;;;;;5009674;28;20231;-86
2022/06/18 01:55:30;;;;;;;5.30;3.60;;;;;;;;;;5009871;28;20191;-87
2022/06/18 01:58:03;;;;;;;4.67;4.27;;;;;;;;;;5009648;28;20193;-86
2022/06/18 02:00:30;;;;;;;5.50;5.10;;;;;;;;;;5009945;28;20631;-86
2022/06/18 02:02:58;;;;;;;4.03;3.73;;;;;;;;;;5009970;28;20202;-86
2022/06/18 02:05:26;;;;;;;4.73;4.33;;;;;;;;;;5009361;28;20263;-85
2022/06/18 02:08:02;;;;;;;4.33;3.93;;;;;;;;;;5009593;28;20255;-86
2022/06/18 02:10:32;;;;;;;6.67;4.00;;;;;;;;;;5009784;28;20671;-85
2022/06/18 02:13:04;;;;;;;5.03;4.60;;;;;;;;;;5008881;28;20207;-86
2022/06/18 02:15:34;;;;;;;7.83;4.57;;;;;;;;;;5008860;28;20651;-85
2022/06/18 02:18:05;;;;;;;10.83;4.23;;;;;;;;;;5009797;28;20630;-85
2022/06/18 02:20:33;;;;;;;6.27;4.60;;;;;;;;;;5009471;28;20186;-87
2022/06/18 02:23:00;;;;;;;4.77;4.23;;;;;;;;;;5009482;28;20252;-85
2022/06/18 02:25:30;;;;;;;3.77;3.47;;;;;;;;;;5009547;28;20226;-85
2022/06/18 02:27:58;;;;;;;4.00;3.70;;;;;;;;;;5009296;28;20230;-85
2022/06/18 02:30:29;;;;;;;5.13;3.97;;;;;;;;;;5009123;28;20197;-86
2022/06/18 02:33:00;;;;;;;4.33;4.00;;;;;;;;;;5009220;28;20540;-85
2022/06/18 02:35:33;;;;;;;6.80;6.00;;;;;;;;;;5009074;28;20726;-84
2022/06/18 02:38:01;;;;;;;7.57;6.93;;;;;;;;;;5009063;28;20741;-85
2022/06/18 02:43:12;;;;;;;6.73;6.10;;;;;;;;;;5008428;28;20217;-84
2022/06/18 02:45:41;;;;;;;6.20;5.73;;;;;;;;;;5008931;28;20246;-85
2022/06/18 02:48:09;;;;;;;9.73;6.73;;;;;;;;;;5008967;28;20265;-85
2022/06/18 02:50:39;;;;;;;7.87;7.17;;;;;;;;;;5008819;28;20288;-84
2022/06/18 02:53:07;;;;;;;7.10;6.60;;;;;;;;;;5009147;28;20271;-84
2022/06/18 02:55:37;;;;;;;6.77;6.20;;;;;;;;;;5009034;28;20636;-84
2022/06/18 02:58:07;;;;;;;7.50;6.90;;;;;;;;;;5008838;28;20271;-84
2022/06/18 03:00:37;;;;;;;6.37;5.93;;;;;;;;;;5008993;28;20192;-84
2022/06/18 03:03:07;;;;;;;8.23;7.50;;;;;;;;;;5008597;28;20214;-84
2022/06/18 03:05:34;;;;;;;7.47;6.93;;;;;;;;;;5009086;28;20599;-85
2022/06/18 03:08:01;;;;;;;8.10;7.43;;;;;;;;;;5008788;28;20287;-84
2022/06/18 03:13:13;;;;;;;6.57;6.10;;;;;;;;;;5008631;28;20669;-85
2022/06/18 03:15:40;;;;;;;8.77;6.40;;;;;;;;;;5008418;28;20197;-84
2022/06/18 03:18:09;;;;;;;11.20;6.83;;;;;;;;;;5008893;28;20203;-85
2022/06/18 03:20:46;;;;;;;7.40;6.80;;;;;;;;;;5008345;28;20210;-85
2022/06/18 03:23:15;;;;;;;8.50;7.70;;;;;;;;;;5008832;28;20198;-84
2022/06/18 03:25:42;;;;;;;7.67;6.97;;;;;;;;;;5010211;28;20619;-84
2022/06/18 03:28:12;;;;;;;7.40;6.80;;;;;;;;;;5012019;28;20275;-85
2022/06/18 03:30:40;;;;;;;7.73;7.03;;;;;;;;;;5011547;28;20252;-84
2022/06/18 03:33:09;;;;;;;7.97;7.37;;;;;;;;;;5014297;28;20281;-85
2022/06/18 03:35:36;;;;;;;7.13;6.53;;;;;;;;;;5031354;28;20651;-84
2022/06/18 03:38:03;;;;;;;8.47;7.00;;;;;;;;;;5031318;28;20201;-84
2022/06/18 03:40:31;;;;;;;7.87;7.33;;;;;;;;;;5031389;28;20667;-84
2022/06/18 03:42:58;;;;;;;8.83;6.73;;;;;;;;;;5031505;28;20260;-85
2022/06/18 03:45:25;;;;;;;6.97;6.47;;;;;;;;;;5031036;28;20279;-84
2022/06/18 03:47:52;;;;;;;7.97;7.20;;;;;;;;;;5031204;28;20199;-84
2022/06/18 03:50:22;;;;;;;7.10;6.60;;;;;;;;;;5031456;28;20263;-85
2022/06/18 03:52:49;;;;;;;7.97;7.27;;;;;;;;;;5031326;28;20210;-85
2022/06/18 03:55:17;;;;;;;8.43;7.77;;;;;;;;;;5031249;28;20246;-85
2022/06/18 03:57:44;;;;;;;7.07;6.57;;;;;;;;;;5030836;28;20217;-85
2022/06/18 04:00:16;;;;;;;7.40;6.70;;;;;;;;;;5031327;28;20210;-84
2022/06/18 04:02:44;;;;;;;6.63;6.13;;;;;;;;;;5031027;28;20273;-84
2022/06/18 04:05:11;;;;;;;6.83;6.27;;;;;;;;;;5030862;28;20314;-85
2022/06/18 04:07:39;;;;;;;6.57;6.07;;;;;;;;;;5030987;28;20504;-84
2022/06/18 04:10:07;;;;;;;7.03;6.33;;;;;;;;;;5030632;28;20195;-85
2022/06/18 04:12:34;;;;;;;7.47;6.87;;;;;;;;;;5030862;28;20202;-84
2022/06/18 04:15:01;;;;;;;6.63;6.20;;;;;;;;;;5030887;28;20206;-84
2022/06/18 04:17:28;;;;;;;7.20;6.70;;;;;;;;;;5030523;28;20208;-84
2022/06/18 04:19:55;;;;;;;7.43;6.83;;;;;;;;;;5031015;28;20194;-85
2022/06/18 04:22:22;;;;;;;7.50;6.70;;;;;;;;;;5030598;28;20206;-85
2022/06/18 04:24:51;;;;;;;8.87;7.37;;;;;;;;;;5030798;28;20251;-84
2022/06/18 04:27:18;;;;;;;8.53;7.63;;;;;;;;;;5030450;28;20255;-85
2022/06/18 04:29:45;;;;;;;8.47;6.70;;;;;;;;;;5030865;28;20202;-84
2022/06/18 04:32:12;;;;;;;7.87;7.07;;;;;;;;;;5024612;28;20264;-83
2022/06/18 04:34:39;;;;;;;7.93;7.33;;;;;;;;;;5011299;28;20268;-86
2022/06/18 04:37:06;;;;;;;6.33;5.60;;;;;;;;;;5009951;28;20194;-85
2022/06/18 04:39:33;;;;;;;6.57;6.00;;;;;;;;;;5010807;28;20320;-84
2022/06/18 04:42:02;;;;;;;6.33;5.63;;;;;;;;;;5010106;28;20206;-84
2022/06/18 04:44:29;;;;;;;6.10;5.63;;;;;;;;;;5010801;28;20203;-84
2022/06/18 04:46:56;;;;;;;5.80;5.30;;;;;;;;;;5010355;28;20653;-85
2022/06/18 04:49:23;;;;;;;6.03;5.63;;;;;;;;;;5010570;28;20199;-85
2022/06/18 04:51:50;;;;;;;5.73;5.07;;;;;;;;;;5021140;28;20289;-85
2022/06/18 04:54:17;;;;;;;6.03;5.63;;;;;;;;;;5029028;28;20237;-83
2022/06/18 04:56:44;;;;;;;5.83;5.33;;;;;;;;;;5018604;28;20202;-85
2022/06/18 04:59:15;;;;;;;5.80;5.30;;;;;;;;;;5010385;28;20668;-85
2022/06/18 05:01:42;;;;;;;6.50;5.63;;;;;;;;;;5009922;28;20667;-84
2022/06/18 05:04:09;;;;;;;6.20;5.60;;;;;;;;;;5010677;28;20634;-86
2022/06/18 05:06:36;;;;;;;7.57;6.17;;;;;;;;;;5010340;28;20598;-85
2022/06/18 05:09:04;;;;;;;6.13;5.63;;;;;;;;;;5009972;28;20207;-84
2022/06/18 05:11:31;;;;;;;6.43;5.90;;;;;;;;;;5010590;28;20210;-85
2022/06/18 05:13:58;;;;;;;6.23;5.57;;;;;;;;;;5010573;28;20204;-87
2022/06/18 05:16:26;;;;;;;6.57;6.07;;;;;;;;;;5010249;28;20693;-88
2022/06/18 05:18:54;;;;;;;6.40;5.87;;;;;;;;;;5010321;28;20209;-85
2022/06/18 05:21:21;;;;;;;6.17;5.67;;;;;;;;;;5010195;28;20655;-85
2022/06/18 05:23:48;;;;;;;6.50;5.63;;;;;;;;;;5010223;28;20210;-84
2022/06/18 05:26:16;;;;;;;6.90;6.40;;;;;;;;;;5009629;28;20230;-86
2022/06/18 05:28:43;;;;;;;6.33;5.73;;;;;;;;;;5009584;28;20208;-84
2022/06/18 05:31:10;;;;;;;6.17;5.77;;;;;;;;;;5009557;28;20205;-85
2022/06/18 05:33:38;;;;;;;6.13;5.63;;;;;;;;;;5020358;28;20223;-85
2022/06/18 05:36:07;;;;;;;6.53;6.03;;;;;;;;;;5029332;28;20195;-85
2022/06/18 05:38:34;;;;;;;6.80;6.23;;;;;;;;;;5029778;28;20681;-85
2022/06/18 05:41:01;;;;;;;7.00;6.10;;;;;;;;;;5029854;28;20201;-84
2022/06/18 05:43:28;;;;;;;6.70;6.20;;;;;;;;;;5029643;28;20735;-85
2022/06/18 05:45:55;;;;;;;6.40;5.80;;;;;;;;;;5028900;28;20282;-84
2022/06/18 05:48:22;;;;;;;6.37;5.87;;;;;;;;;;5030039;28;20261;-88
2022/06/18 05:50:50;;;;;;;6.00;5.60;;;;;;;;;;5029758;28;20252;-87
2022/06/18 05:53:17;;;;;;;6.00;5.60;;;;;;;;;;5030243;28;20329;-89
2022/06/18 05:55:44;;;;;;;6.17;5.50;;;;;;;;;;5029784;28;20209;-86
2022/06/18 05:58:12;;;;;;;8.47;5.43;;;;;;;;;;5029979;28;20214;-88
2022/06/18 06:00:39;;;;;;;6.23;5.73;;;;;;;;;;5029835;28;20190;-88
2022/06/18 06:03:06;;;;;;;6.30;5.70;;;;;;;;;;5029905;28;20320;-87
2022/06/18 06:05:33;;;;;;;7.60;7.00;;;;;;;;;;5029722;28;20636;-88
2022/06/18 06:08:17;;;;;;;6.20;5.70;;;;;;;;;;5029652;28;20205;-87
2022/06/18 06:13:29;;;;;;;6.90;6.30;;;;;;;;;;5029821;28;20182;-86
2022/06/18 06:15:56;;;;;;;5.90;5.40;;;;;;;;;;5029712;28;20262;-86
2022/06/18 06:18:25;;;;;;;6.40;5.90;;;;;;;;;;5029488;28;20665;-87
2022/06/18 06:20:53;;;;;;;6.97;6.17;;;;;;;;;;5029642;28;20255;-87
2022/06/18 06:23:22;;;;;;;6.33;5.83;;;;;;;;;;5029608;28;20194;-86
2022/06/18 06:25:50;;;;;;;6.23;5.83;;;;;;;;;;5029196;28;20662;-86
2022/06/18 06:28:19;;;;;;;6.97;6.37;;;;;;;;;;5029469;28;20202;-87
2022/06/18 06:30:47;;;;;;;5.77;5.37;;;;;;;;;;5029445;27;20206;-86
2022/06/18 06:33:14;;;;;;;6.93;5.67;;;;;;;;;;5029416;28;20210;-86
2022/06/18 06:35:42;;;;;;;8.30;6.83;;;;;;;;;;5029139;27;20290;-86
2022/06/18 06:38:10;;;;;;;6.83;6.10;;;;;;;;;;5029473;28;20203;-86
2022/06/18 06:40:40;;;;;;;7.30;6.60;;;;;;;;;;5029324;28;20209;-87
2022/06/18 06:43:07;;;;;;;6.33;5.87;;;;;;;;;;5029243;28;20626;-86
2022/06/18 06:45:35;;;;;;;6.30;5.53;;;;;;;;;;5028694;28;20231;-87
2022/06/18 06:48:03;;;;;;;5.97;5.43;;;;;;;;;;5029194;28;20823;-87
2022/06/18 06:50:30;;;;;;;5.27;4.87;;;;;;;;;;5029180;28;20194;-86
2022/06/18 06:52:57;;;;;;;5.73;5.23;;;;;;;;;;5026477;28;20205;-87
2022/06/18 06:58:12;;;;;;;5.97;5.47;;;;;;;;;;5028821;28;20256;-86
2022/06/18 07:00:42;;;;;;;5.57;5.17;;;;;;;;;;5030069;28;20206;-85
2022/06/18 07:03:11;;;;;;;5.80;5.40;;;;;;;;;;5026544;28;20579;-85
2022/06/18 07:05:38;;;;;;;5.87;5.40;;;;;;;;;;5016195;28;20273;-86
2022/06/18 07:08:05;;;;;;;5.80;5.40;;;;;;;;;;5012198;28;20664;-84
2022/06/18 07:10:33;;;;;;;6.80;5.53;;;;;;;;;;5011976;28;20738;-86
2022/06/18 07:13:00;;;;;;;6.23;5.50;;;;;;;;;;5011957;28;20203;-86
2022/06/18 07:15:28;;;;;;;7.37;5.53;;;;;;;;;;5016208;28;20200;-86
2022/06/18 07:17:55;;;;;;;6.07;5.57;;;;;;;;;;5019548;28;20326;-85
2022/06/18 07:20:22;;;;;;;6.20;5.60;;;;;;;;;;5026236;28;20230;-86
2022/06/18 07:22:50;;;;;;;5.87;5.37;;;;;;;;;;5012062;28;20207;-85
2022/06/18 07:25:17;;;;;;;5.93;5.33;;;;;;;;;;5011809;28;20241;-85
2022/06/18 07:27:45;;;;;;;6.37;5.87;;;;;;;;;;5011825;28;20239;-85
2022/06/18 07:30:13;;;;;;;5.60;5.10;;;;;;;;;;5014925;28;20203;-85
2022/06/18 07:32:47;;;;;;;5.43;4.90;;;;;;;;;;5017894;28;20214;-84
2022/06/18 07:35:20;;;;;;;5.73;5.23;;;;;;;;;;5013517;28;20275;-86
2022/06/18 07:37:47;;;;;;;6.97;6.37;;;;;;;;;;5011985;28;20191;-85
2022/06/18 07:40:14;;;;;;;5.63;5.13;;;;;;;;;;5011618;28;20674;-84
2022/06/18 07:42:42;;;;;;;5.40;5.00;;;;;;;;;;5011717;28;20206;-85
2022/06/18 07:45:15;;;;;;;6.00;5.53;;;;;;;;;;5023596;28;20655;-85
2022/06/18 07:47:42;;;;;;;5.93;5.53;;;;;;;;;;5030994;28;20222;-84
2022/06/18 07:50:11;;;;;;;4.80;4.50;;;;;;;;;;5031804;28;20232;-87
2022/06/18 07:52:38;;;;;;;5.50;5.10;;;;;;;;;;5032118;28;20195;-87
2022/06/18 07:55:06;;;;;;;7.00;5.63;;;;;;;;;;5031707;28;20198;-87
2022/06/18 07:57:33;;;;;;;5.30;4.90;;;;;;;;;;5032011;28;20199;-88
2022/06/18 08:00:00;;;;;;;6.00;5.40;;;;;;;;;;5031698;28;20198;-87
2022/06/18 08:02:27;;;;;;;5.43;5.03;;;;;;;;;;5032149;28;20199;-88
2022/06/18 08:04:54;;;;;;;5.53;5.03;;;;;;;;;;5031884;28;20207;-88
2022/06/18 08:07:22;;;;;;;5.50;5.10;;;;;;;;;;5032038;28;20234;-90
2022/06/18 08:09:49;;;;;;;5.47;5.03;;;;;;;;;;5031988;28;20671;-91
2022/06/18 08:12:17;;;;;;;5.13;4.57;;;;;;;;;;5030532;28;20663;-88
2022/06/18 08:14:44;;;;;;;5.53;5.13;;;;;;;;;;5031840;28;20264;-87
2022/06/18 08:17:11;;;;;;;5.73;5.23;;;;;;;;;;5032361;28;20209;-85
2022/06/18 08:19:38;;;;;;;6.07;4.97;;;;;;;;;;5013975;28;20225;-84
2022/06/18 08:22:05;;;;;;;5.80;5.20;;;;;;;;;;5011703;28;20200;-90
2022/06/18 08:24:33;;;;;;;5.37;4.97;;;;;;;;;;5011642;28;20203;-87
2022/06/18 08:27:01;;;;;;;6.23;5.73;;;;;;;;;;5012084;28;20280;-90
2022/06/18 08:29:28;;;;;;;5.90;5.50;;;;;;;;;;5012058;28;20264;-90
2022/06/18 08:31:55;;;;;;;4.97;4.67;;;;;;;;;;5011855;28;20200;-91
2022/06/18 08:34:23;;;;;;;5.80;5.40;;;;;;;;;;5012062;28;20231;-90
2022/06/18 08:36:50;;;;;;;5.23;4.77;;;;;;;;;;5011540;28;20195;-88
2022/06/18 08:39:17;;;;;;;4.53;4.23;;;;;;;;;;5011883;28;20203;-90
2022/06/18 08:42:04;;;;;;;5.03;4.47;;;;;;;;;;5011467;28;20207;-89
2022/06/18 08:44:41;;;;;;;5.00;4.50;;;;;;;;;;5011955;28;20188;-91
2022/06/18 08:47:17;;;;;;;5.37;4.97;;;;;;;;;;5011231;28;20238;-94
2022/06/18 08:50:03;;;;;;;5.17;4.60;;;;;;;;;;5011908;28;20192;-94
2022/06/18 08:52:43;;;;;;;5.63;5.23;;;;;;;;;;5011555;28;20312;-90
2022/06/18 08:55:14;;;;;;;5.50;5.10;;;;;;;;;;5011472;28;20644;-91
2022/06/18 08:57:48;;;;;;;5.10;4.70;;;;;;;;;;5011511;28;20271;-90
2022/06/18 09:00:19;;;;;;;4.50;4.10;;;;;;;;;;5011775;28;20192;-90
2022/06/18 09:02:53;;;;;;;4.93;4.57;;;;;;;;;;5011226;28;20198;-89
2022/06/18 09:05:24;;;;;;;5.43;4.83;;;;;;;;;;5011470;28;20658;-90
2022/06/18 09:08:07;;;;;;;6.47;4.70;;;;;;;;;;5011393;28;20219;-91
2022/06/18 09:10:45;;;;;;;4.97;4.60;;;;;;;;;;5011252;28;20282;-89
2022/06/18 09:13:18;;;;;;;5.23;4.73;;;;;;;;;;5011483;28;20199;-89
2022/06/18 09:15:48;;;;;;;5.97;5.47;;;;;;;;;;5011066;28;20237;-90
2022/06/18 09:18:17;;;;;;;4.60;4.30;;;;;;;;;;5010944;28;20184;-90
2022/06/18 09:20:48;;;;;;;4.73;4.43;;;;;;;;;;5010988;28;20252;-90
2022/06/18 09:23:20;;;;;;;4.70;4.30;;;;;;;;;;5010811;28;20214;-90
2022/06/18 09:25:51;;;;;;;5.33;4.83;;;;;;;;;;5011215;28;20213;-91
2022/06/18 09:28:25;;;;;;;5.00;4.70;;;;;;;;;;5010820;28;20268;-93
2022/06/18 09:30:55;;;;;;;5.63;5.23;;;;;;;;;;5011143;28;20184;-91
2022/06/18 09:33:28;;;;;;;4.53;4.23;;;;;;;;;;5010818;28;20245;-88
2022/06/18 09:35:57;;;;;;;3.90;3.60;;;;;;;;;;5010881;28;20183;-88
2022/06/18 09:38:27;;;;;;;4.77;4.37;;;;;;;;;;5010968;28;20195;-87
2022/06/18 09:40:59;;;;;;;4.60;4.30;;;;;;;;;;5011202;28;20653;-89
2022/06/18 09:43:36;;;;;;;4.60;4.17;;;;;;;;;;5010911;28;20188;-90
2022/06/18 09:46:06;;;;;;;4.93;4.53;;;;;;;;;;5010502;28;20239;-89
2022/06/18 09:48:33;;;;;;;5.33;4.43;;;;;;;;;;5010660;28;20839;-89
2022/06/18 09:51:06;;;;;;;4.27;3.90;;;;;;;;;;5011809;28;20200;-89
2022/06/18 09:53:35;;;;;;;4.77;4.37;;;;;;;;;;5010747;28;20209;-88
2022/06/18 09:56:04;;;;;;;4.17;3.87;;;;;;;;;;5010857;28;20257;-90
2022/06/18 09:58:38;;;;;;;4.23;3.83;;;;;;;;;;5010400;28;20196;-88
2022/06/18 10:01:06;;;;;;;4.63;4.20;;;;;;;;;;5010571;28;20199;-89
2022/06/18 10:09:07;;;;;;;5.23;4.83;;;;;;;;;;5010296;28;20190;-89
2022/06/18 10:11:34;;;;;;;6.37;4.90;;;;;;;;;;5010463;28;20210;-90
2022/06/18 10:14:05;;;;;;;4.57;4.27;;;;;;;;;;5010466;28;20220;-89
2022/06/18 10:16:40;;;;;;;4.17;3.87;;;;;;;;;;5010372;28;20199;-89
2022/06/18 10:19:14;;;;;;;11.53;4.37;;;;;;;;;;5010254;28;20187;-89
2022/06/18 10:21:47;;;;;;;3.90;3.60;;;;;;;;;;5010632;28;20195;-89
2022/06/18 10:24:20;;;;;;;3.67;3.47;;;;;;;;;;5010182;28;20191;-88
2022/06/18 10:26:52;;;;;;;4.10;3.80;;;;;;;;;;5010157;28;20274;-88
2022/06/18 10:29:27;;;;;;;4.10;3.80;;;;;;;;;;5010299;28;20195;-89
2022/06/18 10:32:08;;;;;;;4.43;4.07;;;;;;;;;;5010314;28;20642;-88
2022/06/18 10:34:53;;;;;;;4.27;3.97;;;;;;;;;;5010110;28;20502;-89
2022/06/18 10:37:25;;;;;;;5.50;4.20;;;;;;;;;;5013516;28;20184;-88
2022/06/18 10:39:59;;;;;;;4.07;3.77;;;;;;;;;;5013469;28;20191;-88
2022/06/18 10:42:36;;;;;;;5.27;4.77;;;;;;;;;;5013295;28;20194;-89
2022/06/18 10:45:12;;;;;;;4.87;3.43;;;;;;;;;;5013304;28;20188;-89
2022/06/18 10:47:41;;;;;;;3.87;3.57;;;;;;;;;;5013439;28;20246;-89
2022/06/18 10:50:11;;;;;;;4.17;3.80;;;;;;;;;;5013709;28;20237;-89
2022/06/18 10:52:39;;;;;;;3.63;3.40;;;;;;;;;;5013566;28;20660;-88
2022/06/18 10:55:10;;;;;;;3.10;2.80;;;;;;;;;;5012583;28;20207;-83
2022/06/18 10:57:37;;;;;;;5.67;4.97;;;;;;;;;;5011921;28;20664;-83
2022/06/18 11:00:18;;;;;;;4.67;4.27;;;;;;;;;;5012283;28;20773;-84
2022/06/18 11:02:46;;;;;;;3.40;3.20;;;;;;;;;;5012162;28;20244;-83
2022/06/18 11:05:22;;;;;;;3.10;2.90;;;;;;;;;;5012391;28;20192;-83
2022/06/18 11:07:51;;;;;;;4.13;3.67;;;;;;;;;;5011701;28;20237;-84
2022/06/18 11:10:25;;;;;;;8.13;5.57;;;;;;;;;;5023218;28;20624;-84
2022/06/18 11:12:55;;;;;;;5.03;3.70;;;;;;;;;;5031730;28;20693;-83
2022/06/18 11:15:27;;;;;;;5.10;3.80;;;;;;;;;;5031291;28;20639;-84
2022/06/18 11:17:54;;;;;;;3.10;2.90;;;;;;;;;;5031905;28;20256;-84
2022/06/18 11:20:24;;;;;;;3.13;2.93;;;;;;;;;;5016211;28;20236;-84
2022/06/18 11:22:53;;;;;;;6.27;3.00;;;;;;;;;;5012216;28;20184;-84
2022/06/18 11:25:27;;;;;;;3.23;3.03;;;;;;;;;;5011847;28;20199;-84
2022/06/18 11:27:57;;;;;;;3.83;3.47;;;;;;;;;;5012072;28;20219;-85
2022/06/18 11:30:29;;;;;;;3.47;2.97;;;;;;;;;;5011530;28;20215;-83
2022/06/18 11:32:56;;;;;;;3.73;3.30;;;;;;;;;;5011707;28;20199;-84
2022/06/18 11:35:26;;;;;;;4.17;3.50;;;;;;;;;;5011680;28;20227;-83
2022/06/18 11:37:59;;;;;;;4.13;3.10;;;;;;;;;;5011989;28;20665;-83
2022/06/18 11:40:26;;;;;;;3.37;3.10;;;;;;;;;;5011630;28;20219;-84
2022/06/18 11:42:56;;;;;;;3.80;3.50;;;;;;;;;;5011531;28;20565;-84
2022/06/18 11:45:42;;;;;;;4.03;3.43;;;;;;;;;;5011394;28;20204;-84
2022/06/18 11:48:23;;;;;;;3.57;3.30;;;;;;;;;;5011829;28;20227;-84
2022/06/18 11:50:56;;;;;;;3.90;3.37;;;;;;;;;;5011628;28;20260;-84
2022/06/18 11:53:27;;;;;;;4.70;3.40;;;;;;;;;;5011270;28;20225;-83
2022/06/18 11:55:57;;;;;;;2.80;2.60;;;;;;;;;;5011233;28;20183;-83
2022/06/18 11:58:29;;;;;;;3.40;3.10;;;;;;;;;;5011404;28;20211;-84
2022/06/18 12:01:03;;;;;;;3.77;3.47;;;;;;;;;;5011433;28;20192;-83
2022/06/18 12:03:36;;;;;;;4.13;2.70;;;;;;;;;;5011424;28;20247;-83
2022/06/18 12:06:07;;;;;;;3.20;3.00;;;;;;;;;;5011119;28;20192;-83
2022/06/18 12:08:35;;;;;;;3.00;2.80;;;;;;;;;;5011179;28;20216;-83
2022/06/18 12:11:09;;;;;;;3.57;3.27;;;;;;;;;;5010994;28;20204;-83
2022/06/18 12:13:39;;;;;;;3.43;3.20;;;;;;;;;;5011300;28;20219;-83
2022/06/18 12:16:18;;;;;;;3.50;3.20;;;;;;;;;;5010932;28;20188;-83
2022/06/18 12:18:51;;;;;;;4.50;3.40;;;;;;;;;;5011439;28;20191;-83
2022/06/18 12:21:27;;;;;;;3.13;2.70;;;;;;;;;;5010787;28;20279;-83
2022/06/18 12:24:00;;;;;;;3.93;3.20;;;;;;;;;;5022200;28;20255;-83
2022/06/18 12:26:34;;;;;;;4.67;2.93;;;;;;;;;;5030585;28;20187;-84
2022/06/18 12:29:18;;;;;;;3.27;2.97;;;;;;;;;;5030635;28;20206;-83
2022/06/18 12:31:50;;;;;;;3.30;3.10;;;;;;;;;;5030755;28;20195;-83
2022/06/18 12:34:24;;;;;;;5.77;3.63;;;;;;;;;;5030727;28;20651;-83
2022/06/18 12:36:55;;;;;;;3.97;2.90;;;;;;;;;;5030333;28;20240;-83
2022/06/18 12:39:30;;;;;;;3.33;3.03;;;;;;;;;;5030597;28;20184;-83
2022/06/18 12:42:01;;;;;;;3.57;2.83;;;;;;;;;;5030028;28;20191;-83
2022/06/18 12:44:36;;;;;;;4.27;3.13;;;;;;;;;;5030785;28;20194;-83
2022/06/18 12:47:11;;;;;;;2.77;2.57;;;;;;;;;;5029993;28;20245;-83
2022/06/18 12:49:43;;;;;;;3.03;2.83;;;;;;;;;;5030606;28;20210;-83
2022/06/18 12:52:17;;;;;;;2.80;2.60;;;;;;;;;;5030289;28;20187;-83
2022/06/18 12:54:53;;;;;;;3.10;2.90;;;;;;;;;;5030211;28;20244;-83
2022/06/18 12:57:26;;;;;;;3.50;2.80;;;;;;;;;;5029604;28;20191;-83
2022/06/18 13:00:03;;;;;;;3.00;2.80;;;;;;;;;;5030524;28;20282;-84
2022/06/18 13:02:46;;;;;;;2.43;2.23;;;;;;;;;;5030304;28;20240;-83
2022/06/18 13:05:21;;;;;;;2.97;2.70;;;;;;;;;;5030479;28;20247;-86
2022/06/18 13:07:56;;;;;;;6.63;3.03;;;;;;;;;;5029935;28;20207;-83
2022/06/18 13:10:27;;;;;;;2.70;2.50;;;;;;;;;;5029791;28;20186;-83
2022/06/18 13:13:04;;;;;;;2.53;2.40;;;;;;;;;;5029864;28;20548;-83
2022/06/18 13:15:37;;;;;;;3.43;3.13;;;;;;;;;;5029861;28;20186;-83
2022/06/18 13:18:11;;;;;;;2.23;2.10;;;;;;;;;;5029882;28;20187;-83
2022/06/18 13:20:40;;;;;;;4.80;2.67;;;;;;;;;;5029456;28;20663;-81
2022/06/18 13:28:35;;;;;;;2.57;2.37;;;;;;;;;;5030355;28;20335;-84
2022/06/18 13:31:06;;;;;;;2.47;2.27;;;;;;;;;;5029767;28;20198;-83
2022/06/18 13:33:43;;;;;;;2.50;2.40;;;;;;;;;;5029444;28;20191;-83
2022/06/18 13:36:22;;;;;;;3.67;3.00;;;;;;;;;;5029394;28;20278;-84
2022/06/18 13:38:52;;;;;;;5.57;4.20;;;;;;;;;;5029625;28;20191;-83
2022/06/18 13:41:22;;;;;;;2.13;2.03;;;;;;;;;;5029678;28;20625;-83
2022/06/18 13:43:54;;;;;;;2.70;2.50;;;;;;;;;;5029094;28;20203;-84
2022/06/18 13:46:27;;;;;;;3.80;2.40;;;;;;;;;;5029230;28;20239;-83
2022/06/18 13:49:04;;;;;;;2.40;2.30;;;;;;;;;;5029426;28;20203;-83
2022/06/18 13:51:33;;;;;;;3.20;2.40;;;;;;;;;;5030047;28;20191;-83
2022/06/18 13:54:06;;;;;;;2.60;2.40;;;;;;;;;;5029634;28;20318;-83
2022/06/18 13:56:34;;;;;;;2.27;2.07;;;;;;;;;;5029553;28;20205;-84
2022/06/18 13:59:02;;;;;;;2.50;2.23;;;;;;;;;;5029303;28;20199;-83
2022/06/18 14:01:31;;;;;;;2.47;1.97;;;;;;;;;;5028800;28;20202;-84
2022/06/18 14:04:02;;;;;;;5.50;2.70;;;;;;;;;;5029485;28;20206;-84
2022/06/18 14:06:30;;;;;;;2.50;2.40;;;;;;;;;;5029322;28;20194;-83
2022/06/18 14:08:59;;;;;;;2.60;2.40;;;;;;;;;;5028523;28;20279;-83
2022/06/18 14:11:30;;;;;;;4.47;2.63;;;;;;;;;;5028176;28;20205;-85
2022/06/18 14:13:57;;;;;;;3.00;2.70;;;;;;;;;;5029454;28;20183;-83
2022/06/18 14:16:31;;;;;;;3.60;2.30;;;;;;;;;;5029237;28;20563;-83
2022/06/18 14:19:13;;;;;;;3.27;2.60;;;;;;;;;;5029101;28;20179;-83
2022/06/18 14:21:41;;;;;;;5.70;2.57;;;;;;;;;;5028834;28;20190;-83
2022/06/18 14:24:09;;;;;;;2.23;2.03;;;;;;;;;;5029219;28;20198;-83
2022/06/18 14:26:43;;;;;;;2.90;2.70;;;;;;;;;;5028798;28;20191;-83
2022/06/18 14:29:10;;;;;;;3.80;2.47;;;;;;;;;;5029085;28;20240;-83
2022/06/18 14:31:43;;;;;;;3.43;2.67;;;;;;;;;;5028769;28;20293;-83
2022/06/18 14:34:15;;;;;;;2.73;2.43;;;;;;;;;;5029160;28;20191;-84
2022/06/18 14:36:45;;;;;;;3.43;2.40;;;;;;;;;;5029035;28;20255;-84
2022/06/18 14:39:24;;;;;;;3.40;3.10;;;;;;;;;;5028579;28;20203;-84
2022/06/18 14:42:03;;;;;;;5.23;2.60;;;;;;;;;;5028989;28;20229;-84
2022/06/18 14:44:51;;;;;;;3.60;2.57;;;;;;;;;;5029045;28;20546;-85
2022/06/18 14:48:00;;;;;;;5.53;3.27;;;;;;;;;;5028144;28;20224;-84
2022/06/18 14:50:51;;;;;;;2.63;2.43;;;;;;;;;;5019428;28;20207;-83
2022/06/18 14:53:37;;;;;;;3.00;2.33;;;;;;;;;;5028331;28;20253;-84
2022/06/18 14:56:14;;;;;;;2.83;1.90;;;;;;;;;;5024739;28;20202;-85
2022/06/18 14:59:04;;;;;;;3.27;2.37;;;;;;;;;;5023655;28;20198;-84
2022/06/18 15:01:43;;;;;;;3.87;2.43;;;;;;;;;;5018611;28;20281;-84
2022/06/18 15:04:15;;;;;;;1.90;1.80;;;;;;;;;;5028216;28;20191;-83
2022/06/18 15:06:44;;;;;;;2.40;2.20;;;;;;;;;;5012223;28;20199;-85
2022/06/18 15:09:14;;;;;;;2.33;2.10;;;;;;;;;;5026901;28;20238;-83
2022/06/18 15:11:44;;;;;;;3.50;1.80;;;;;;;;;;5028302;28;20247;-84
2022/06/18 15:14:12;;;;;;;2.47;1.80;;;;;;;;;;5028628;28;20192;-82
2022/06/18 15:16:56;;;;;;;2.23;1.80;;;;;;;;;;5028090;28;20237;-83
2022/06/18 15:19:31;;;;;;;18.67;2.50;;;;;;;;;;5028054;28;20179;-83
2022/06/18 15:22:02;;;;;;;2.30;2.10;;;;;;;;;;5030163;28;20616;-84
2022/06/18 15:27:26;;;;;;;2.33;2.13;;;;;;;;;;5031054;28;20569;-84
2022/06/18 15:29:55;;;;;;;2.10;1.83;;;;;;;;;;5031499;28;20752;-84